Time;durP1;ratioP1;P1;durP2;ratioP2;P2;SDS_P1;SDS_P2;PMS_P1;PMS_P2;Temp;Humidity;BMP_temperature;BMP_pressure;BME280_temperature;BME280_humidity;BME280_pressure;Samples;Min_cycle;Max_cycle;Signal;HPM_P1;HPM_P2
2023/04/25 00:01:22;;;;;;;5.97;3.13;;;7.10;96.10;;;;;;5032906;28;20116;-74
2023/04/25 00:03:48;;;;;;;6.85;3.20;;;7.10;95.80;;;;;;5025122;28;20018;-74
2023/04/25 00:06:14;;;;;;;6.57;3.10;;;7.20;96.20;;;;;;5018496;28;20432;-73
2023/04/25 00:08:40;;;;;;;10.82;4.38;;;7.10;96.00;;;;;;5017680;28;20108;-73
2023/04/25 00:11:06;;;;;;;7.00;3.38;;;7.00;96.60;;;;;;5035417;28;20030;-74
2023/04/25 00:13:31;;;;;;;8.38;4.68;;;7.00;96.80;;;;;;5029380;28;20437;-73
2023/04/25 00:15:57;;;;;;;6.50;3.20;;;7.00;96.70;;;;;;5016326;28;20105;-73
2023/04/25 00:18:29;;;;;;;9.85;4.45;;;6.90;96.80;;;;;;5002345;28;20049;-74
2023/04/25 00:20:55;;;;;;;8.75;3.88;;;6.90;97.10;;;;;;5017113;28;20040;-74
2023/04/25 00:23:21;;;;;;;10.30;3.42;;;6.90;96.90;;;;;;5017889;28;20030;-74
2023/04/25 00:25:48;;;;;;;7.55;3.25;;;7.00;96.50;;;;;;5027970;28;20061;-74
2023/04/25 00:28:14;;;;;;;6.30;3.50;;;7.00;95.80;;;;;;5016226;28;20018;-74
2023/04/25 00:30:41;;;;;;;5.68;3.13;;;7.20;95.60;;;;;;5016949;28;20031;-74
2023/04/25 00:33:07;;;;;;;7.80;3.20;;;7.20;95.00;;;;;;5025992;28;20022;-74
2023/04/25 00:35:32;;;;;;;7.80;3.33;;;7.20;94.70;;;;;;5020398;28;20034;-74
2023/04/25 00:37:58;;;;;;;11.90;3.60;;;7.20;94.80;;;;;;5017745;28;20117;-74
2023/04/25 00:40:24;;;;;;;7.85;3.00;;;7.20;95.00;;;;;;5013637;28;20034;-74
2023/04/25 00:42:52;;;;;;;7.18;3.10;;;7.20;95.50;;;;;;5010604;28;20053;-74
2023/04/25 00:45:18;;;;;;;6.72;3.47;;;7.20;95.40;;;;;;4996341;28;20030;-74
2023/04/25 00:47:43;;;;;;;5.85;3.13;;;7.10;95.60;;;;;;5012033;28;20441;-74
2023/04/25 00:50:10;;;;;;;6.47;3.33;;;7.10;96.00;;;;;;5014379;28;20030;-74
2023/04/25 00:52:39;;;;;;;8.02;3.40;;;7.10;96.20;;;;;;5014889;28;20033;-74
2023/04/25 00:55:05;;;;;;;6.35;3.42;;;7.00;96.40;;;;;;4997277;28;20025;-74
2023/04/25 00:57:31;;;;;;;7.85;3.67;;;7.00;96.50;;;;;;4997587;28;20343;-73
2023/04/25 00:59:57;;;;;;;8.57;3.70;;;7.00;96.60;;;;;;5010702;28;20435;-75
2023/04/25 01:02:23;;;;;;;6.68;3.40;;;7.00;97.30;;;;;;5015042;28;20092;-73
2023/04/25 01:04:48;;;;;;;8.13;3.58;;;6.90;97.50;;;;;;5007176;28;20087;-74
2023/04/25 01:07:15;;;;;;;9.77;3.45;;;6.90;97.40;;;;;;5015574;28;20145;-75
2023/04/25 01:09:41;;;;;;;8.75;3.67;;;6.80;97.10;;;;;;5008314;28;20426;-76
2023/04/25 01:12:07;;;;;;;7.35;3.72;;;6.90;96.80;;;;;;5022018;28;20112;-75
2023/04/25 01:14:32;;;;;;;6.72;3.63;;;7.00;96.90;;;;;;5024175;28;20109;-74
2023/04/25 01:16:58;;;;;;;9.68;3.28;;;7.00;96.60;;;;;;5032479;28;20026;-77
2023/04/25 01:19:24;;;;;;;7.65;3.63;;;7.00;96.80;;;;;;5034638;28;20033;-74
2023/04/25 01:21:51;;;;;;;9.10;4.47;;;6.90;97.20;;;;;;5014073;28;20030;-74
2023/04/25 01:24:16;;;;;;;8.25;3.97;;;6.90;97.10;;;;;;5006328;28;20018;-75
2023/04/25 01:26:49;;;;;;;10.30;4.07;;;6.80;97.40;;;;;;5016605;28;20055;-73
2023/04/25 01:29:19;;;;;;;9.75;3.67;;;6.80;97.30;;;;;;5015268;28;20018;-74
2023/04/25 01:31:45;;;;;;;7.80;4.18;;;6.80;97.40;;;;;;5011912;28;20036;-75
2023/04/25 01:34:11;;;;;;;10.13;4.10;;;6.80;97.50;;;;;;5012274;28;20101;-74
2023/04/25 01:36:37;;;;;;;8.35;4.15;;;6.80;97.50;;;;;;5029622;28;20069;-74
2023/04/25 01:39:03;;;;;;;10.07;4.88;;;6.60;97.90;;;;;;5015946;28;20057;-75
2023/04/25 01:41:29;;;;;;;13.07;4.55;;;6.60;97.90;;;;;;5014173;28;20466;-74
2023/04/25 01:43:55;;;;;;;8.60;4.50;;;6.50;98.00;;;;;;5010655;28;20017;-74
2023/04/25 01:46:20;;;;;;;8.85;4.10;;;6.50;98.00;;;;;;5015005;28;20037;-75
2023/04/25 01:48:46;;;;;;;12.48;4.43;;;6.50;98.00;;;;;;5002385;28;20025;-74
2023/04/25 01:51:12;;;;;;;10.57;4.57;;;6.50;98.00;;;;;;5014908;28;20052;-74
2023/04/25 01:53:38;;;;;;;8.77;4.55;;;6.50;98.00;;;;;;5000197;28;20052;-74
2023/04/25 01:56:04;;;;;;;8.25;4.85;;;6.50;98.00;;;;;;4996342;28;20049;-74
2023/04/25 01:58:30;;;;;;;13.85;4.88;;;6.40;98.00;;;;;;4999142;28;20048;-74
2023/04/25 02:00:55;;;;;;;9.60;4.40;;;6.30;98.00;;;;;;5014608;28;20030;-74
2023/04/25 02:03:21;;;;;;;10.60;4.18;;;6.30;98.00;;;;;;5003085;28;20335;-74
2023/04/25 02:05:47;;;;;;;9.85;4.43;;;6.30;98.00;;;;;;4995353;28;20073;-74
2023/04/25 02:08:12;;;;;;;12.50;5.07;;;6.20;98.00;;;;;;4997381;28;20030;-74
2023/04/25 02:10:38;;;;;;;7.80;4.50;;;6.30;98.00;;;;;;4996205;28;20109;-74
2023/04/25 02:13:05;;;;;;;7.68;4.00;;;6.30;98.00;;;;;;5003604;28;20034;-73
2023/04/25 02:15:30;;;;;;;9.75;4.35;;;6.30;98.00;;;;;;5020069;28;20099;-74
2023/04/25 02:17:56;;;;;;;7.22;3.78;;;6.30;98.00;;;;;;5021363;28;20361;-73
2023/04/25 02:20:23;;;;;;;8.90;3.65;;;6.30;98.00;;;;;;5020292;28;20038;-73
2023/04/25 02:22:48;;;;;;;7.97;3.72;;;6.20;98.00;;;;;;5029743;28;20030;-73
2023/04/25 02:25:15;;;;;;;9.63;4.10;;;6.20;98.00;;;;;;5026545;28;20079;-73
2023/04/25 02:27:42;;;;;;;7.82;4.00;;;6.00;98.00;;;;;;5023479;28;20022;-73
2023/04/25 02:30:08;;;;;;;8.93;3.70;;;6.00;98.00;;;;;;5019294;28;20022;-74
2023/04/25 02:32:34;;;;;;;11.43;3.88;;;6.00;98.00;;;;;;5027282;28;20324;-73
2023/04/25 02:35:03;;;;;;;7.63;3.60;;;6.10;98.00;;;;;;5035603;28;20075;-74
2023/04/25 02:37:33;;;;;;;7.72;3.65;;;6.10;98.00;;;;;;5037132;28;20033;-74
2023/04/25 02:39:59;;;;;;;7.20;3.80;;;6.00;98.00;;;;;;5021141;28;20026;-74
2023/04/25 02:42:26;;;;;;;6.53;3.22;;;5.90;98.00;;;;;;5012780;28;20422;-74
2023/04/25 02:44:51;;;;;;;9.32;3.75;;;5.80;98.00;;;;;;5020096;28;20045;-74
2023/04/25 02:47:17;;;;;;;7.57;3.58;;;5.80;98.00;;;;;;5022545;28;20035;-74
2023/04/25 02:49:43;;;;;;;8.98;4.35;;;5.70;98.00;;;;;;5009135;28;20048;-74
2023/04/25 02:52:08;;;;;;;6.28;3.30;;;5.70;98.00;;;;;;5027414;28;20029;-73
2023/04/25 02:54:34;;;;;;;10.23;3.85;;;5.70;98.00;;;;;;5019387;28;20036;-74
2023/04/25 02:57:00;;;;;;;9.13;3.22;;;5.70;98.00;;;;;;5032738;28;20044;-74
2023/04/25 02:59:26;;;;;;;6.47;3.30;;;5.60;98.00;;;;;;5013895;28;20034;-74
2023/04/25 03:01:51;;;;;;;4.93;3.20;;;5.50;98.00;;;;;;5017608;28;20033;-74
2023/04/25 03:04:18;;;;;;;8.98;3.70;;;5.40;98.00;;;;;;5016848;28;20021;-73
2023/04/25 03:06:44;;;;;;;6.35;3.47;;;5.30;98.00;;;;;;5018851;28;20087;-74
2023/04/25 03:09:10;;;;;;;10.65;3.70;;;5.30;98.00;;;;;;5017384;28;20054;-74
2023/04/25 03:11:38;;;;;;;9.82;3.53;;;5.30;98.00;;;;;;5018709;28;20021;-74
2023/04/25 03:14:04;;;;;;;7.03;3.72;;;5.40;98.00;;;;;;5016542;28;20089;-73
2023/04/25 03:16:30;;;;;;;7.57;3.15;;;5.50;98.00;;;;;;5015545;28;20025;-74
2023/04/25 03:18:56;;;;;;;12.75;4.00;;;5.50;98.00;;;;;;5014209;28;20038;-74
2023/04/25 03:21:22;;;;;;;6.28;3.53;;;5.50;98.00;;;;;;4998849;28;20334;-74
2023/04/25 03:23:48;;;;;;;9.35;3.58;;;5.60;98.00;;;;;;4999405;28;20054;-74
2023/04/25 03:26:16;;;;;;;7.88;3.70;;;5.60;98.00;;;;;;5007740;28;20068;-74
2023/04/25 03:28:42;;;;;;;6.82;3.60;;;5.60;98.00;;;;;;5016561;28;20139;-74
2023/04/25 03:31:07;;;;;;;7.85;3.58;;;5.60;98.00;;;;;;5021400;28;20034;-74
2023/04/25 03:33:33;;;;;;;7.45;3.60;;;5.70;98.00;;;;;;5013737;28;20034;-74
2023/04/25 03:35:58;;;;;;;10.13;4.10;;;5.70;98.00;;;;;;5022254;28;20022;-73
2023/04/25 03:38:24;;;;;;;7.53;3.70;;;5.70;98.00;;;;;;5012734;28;20413;-74
2023/04/25 03:40:51;;;;;;;6.18;3.58;;;5.70;98.00;;;;;;5016508;28;20314;-74
2023/04/25 03:43:16;;;;;;;7.35;3.72;;;5.80;98.00;;;;;;5011692;28;20088;-74
2023/04/25 03:45:44;;;;;;;9.95;3.42;;;5.80;98.00;;;;;;5018381;28;20100;-74
2023/04/25 03:48:11;;;;;;;9.75;3.85;;;5.90;98.00;;;;;;5007331;28;20022;-74
2023/04/25 03:50:36;;;;;;;8.65;3.88;;;5.90;98.00;;;;;;5015898;28;20022;-74
2023/04/25 03:53:02;;;;;;;9.45;3.65;;;5.90;98.00;;;;;;4998857;28;20453;-74
2023/04/25 03:55:27;;;;;;;6.38;3.63;;;5.90;98.00;;;;;;5002282;28;20330;-73
2023/04/25 03:57:53;;;;;;;10.43;4.10;;;5.90;98.00;;;;;;5016342;28;20049;-74
2023/04/25 04:00:19;;;;;;;7.60;3.78;;;5.80;98.00;;;;;;5013152;28;20052;-74
2023/04/25 04:02:44;;;;;;;11.05;3.80;;;5.70;98.00;;;;;;5021954;28;20295;-74
2023/04/25 04:05:10;;;;;;;8.07;4.28;;;5.60;98.00;;;;;;5021944;28;20026;-73
2023/04/25 04:07:40;;;;;;;8.30;3.90;;;5.50;98.00;;;;;;5014014;28;20018;-74
2023/04/25 04:10:09;;;;;;;12.40;5.13;;;5.40;97.70;;;;;;5014524;28;20025;-74
2023/04/25 04:12:35;;;;;;;10.27;4.00;;;5.30;97.50;;;;;;5014682;28;20033;-74
2023/04/25 04:15:03;;;;;;;10.77;4.15;;;5.30;97.70;;;;;;5018455;28;20025;-74
2023/04/25 04:17:29;;;;;;;11.77;5.95;;;5.30;97.50;;;;;;5043998;28;20620;-74
2023/04/25 04:19:55;;;;;;;8.15;4.68;;;5.50;97.80;;;;;;5018463;28;20116;-74
2023/04/25 04:22:24;;;;;;;7.22;3.70;;;5.60;98.00;;;;;;5026128;28;20530;-74
2023/04/25 04:24:50;;;;;;;9.63;3.92;;;5.70;98.00;;;;;;5007867;28;20037;-74
2023/04/25 04:27:22;;;;;;;7.40;3.20;;;5.80;98.00;;;;;;5018359;28;20104;-74
2023/04/25 04:29:48;;;;;;;7.07;3.83;;;5.80;98.00;;;;;;5008685;28;20137;-73
2023/04/25 04:32:14;;;;;;;7.47;3.80;;;5.80;98.00;;;;;;5016125;28;20116;-76
2023/04/25 04:34:41;;;;;;;8.20;3.58;;;5.80;98.00;;;;;;5017567;28;20040;-75
2023/04/25 04:37:07;;;;;;;9.00;4.13;;;5.80;98.00;;;;;;5012713;28;20029;-74
2023/04/25 04:39:33;;;;;;;9.77;3.80;;;5.80;98.00;;;;;;5014312;28;20426;-74
2023/04/25 04:42:01;;;;;;;9.23;3.85;;;5.80;98.00;;;;;;4997642;28;20300;-75
2023/04/25 04:44:28;;;;;;;9.57;3.88;;;5.80;98.00;;;;;;4997427;28;20018;-75
2023/04/25 04:46:54;;;;;;;11.52;4.90;;;5.80;98.00;;;;;;4997248;28;20022;-74
2023/04/25 04:49:19;;;;;;;7.32;4.07;;;5.70;98.00;;;;;;5016553;28;20033;-74
2023/04/25 04:51:45;;;;;;;9.88;4.05;;;5.70;98.00;;;;;;5013296;28;20081;-75
2023/04/25 04:54:13;;;;;;;7.75;4.03;;;5.60;97.80;;;;;;4997277;28;20097;-74
2023/04/25 04:56:39;;;;;;;9.45;4.50;;;5.60;97.60;;;;;;4997682;28;20021;-74
2023/04/25 04:59:04;;;;;;;9.55;4.25;;;5.70;98.00;;;;;;5020542;28;20103;-74
2023/04/25 05:01:30;;;;;;;8.25;4.55;;;5.80;98.00;;;;;;5014894;28;20369;-74
2023/04/25 05:04:00;;;;;;;9.32;4.30;;;5.90;98.00;;;;;;5035879;22;20082;-77
2023/04/25 05:06:27;;;;;;;9.73;4.20;;;6.00;98.00;;;;;;5034659;28;20033;-75
2023/04/25 05:08:52;;;;;;;11.55;5.63;;;6.10;98.00;;;;;;5015496;28;20026;-75
2023/04/25 05:11:19;;;;;;;7.80;4.60;;;6.20;98.00;;;;;;5016687;28;20037;-75
2023/04/25 05:13:46;;;;;;;8.48;4.95;;;6.20;98.00;;;;;;5035573;28;20479;-75
2023/04/25 05:16:12;;;;;;;13.35;4.68;;;6.20;98.00;;;;;;5030325;28;20159;-74
2023/04/25 05:18:39;;;;;;;10.07;4.72;;;6.30;98.00;;;;;;5020026;28;20040;-74
2023/04/25 05:21:05;;;;;;;8.27;3.95;;;6.20;98.00;;;;;;5036070;28;20025;-73
2023/04/25 05:23:32;;;;;;;9.50;4.53;;;6.10;98.00;;;;;;5019352;28;20034;-74
2023/04/25 05:25:57;;;;;;;10.20;4.63;;;6.00;98.00;;;;;;5016317;28;20425;-74
2023/04/25 05:28:23;;;;;;;9.82;5.50;;;5.90;98.00;;;;;;5016676;28;20026;-73
2023/04/25 05:30:49;;;;;;;9.15;5.32;;;5.90;98.00;;;;;;5016389;28;21068;-74
2023/04/25 05:33:15;;;;;;;7.65;4.45;;;6.00;98.00;;;;;;5016365;28;20021;-75
2023/04/25 05:35:41;;;;;;;6.55;3.58;;;6.10;98.00;;;;;;5015376;28;20390;-74
2023/04/25 05:38:07;;;;;;;7.20;4.00;;;6.10;98.00;;;;;;5029989;28;20038;-74
2023/04/25 05:40:32;;;;;;;7.22;3.40;;;6.10;98.00;;;;;;5028376;28;20075;-77
2023/04/25 05:42:58;;;;;;;5.47;2.75;;;6.10;98.00;;;;;;5047808;28;20029;-74
2023/04/25 05:45:23;;;;;;;10.20;4.55;;;6.10;98.00;;;;;;5034592;28;20033;-75
2023/04/25 05:47:49;;;;;;;6.45;3.33;;;6.10;97.70;;;;;;5031194;28;20405;-75
2023/04/25 05:50:15;;;;;;;6.40;2.40;;;6.10;98.00;;;;;;5022394;28;20306;-75
2023/04/25 05:52:40;;;;;;;7.05;3.80;;;6.10;98.00;;;;;;5032441;28;20057;-74
2023/04/25 05:55:06;;;;;;;8.77;3.50;;;6.20;98.00;;;;;;5034084;28;20026;-75
2023/04/25 05:57:32;;;;;;;6.60;2.80;;;6.30;98.00;;;;;;5032961;28;20041;-74
2023/04/25 05:59:57;;;;;;;6.38;2.63;;;6.50;98.00;;;;;;5034523;28;20079;-74
2023/04/25 06:02:23;;;;;;;6.82;2.60;;;6.70;98.00;;;;;;5033017;28;20040;-74
2023/04/25 06:04:52;;;;;;;6.97;2.47;;;6.80;97.30;;;;;;5029490;28;20041;-74
2023/04/25 06:07:18;;;;;;;6.50;2.67;;;6.90;97.10;;;;;;5016516;28;20101;-74
2023/04/25 06:09:44;;;;;;;7.38;2.95;;;7.10;96.80;;;;;;5031294;28;20026;-74
2023/04/25 06:12:10;;;;;;;6.30;3.00;;;7.20;95.50;;;;;;5034689;28;20299;-74
2023/04/25 06:14:35;;;;;;;4.82;2.47;;;7.10;95.90;;;;;;5028710;28;20040;-75
2023/04/25 06:17:06;;;;;;;5.25;2.65;;;7.20;96.10;;;;;;5029911;28;20343;-75
2023/04/25 06:19:33;;;;;;;6.03;2.55;;;7.10;95.40;;;;;;5029647;28;20026;-75
2023/04/25 06:21:58;;;;;;;8.05;2.55;;;7.10;95.90;;;;;;5028271;28;20113;-74
2023/04/25 06:24:24;;;;;;;7.75;2.92;;;7.20;95.40;;;;;;5026257;28;20101;-75
2023/04/25 06:26:49;;;;;;;6.65;3.53;;;7.30;96.00;;;;;;5031698;28;20033;-74
2023/04/25 06:29:15;;;;;;;5.43;2.95;;;7.30;95.60;;;;;;5017540;28;20024;-74
2023/04/25 06:31:41;;;;;;;5.65;3.40;;;7.30;95.70;;;;;;5032423;28;20026;-74
2023/04/25 06:34:06;;;;;;;9.43;3.92;;;7.30;95.50;;;;;;5031413;28;20105;-74
2023/04/25 06:36:32;;;;;;;7.00;3.10;;;7.40;95.50;;;;;;5029795;28;20029;-75
2023/04/25 06:38:57;;;;;;;6.45;3.50;;;7.40;95.30;;;;;;5029304;28;20017;-75
2023/04/25 06:41:23;;;;;;;8.18;3.92;;;7.40;95.60;;;;;;5030983;28;20037;-75
2023/04/25 06:43:48;;;;;;;7.43;3.20;;;7.40;95.10;;;;;;5026722;28;20117;-75
2023/04/25 06:46:14;;;;;;;6.00;2.97;;;7.50;94.90;;;;;;5027775;28;20087;-74
2023/04/25 06:48:39;;;;;;;6.85;3.00;;;7.50;94.70;;;;;;5032575;28;20406;-74
2023/04/25 06:51:05;;;;;;;5.50;2.65;;;7.70;94.90;;;;;;5029138;28;20025;-75
2023/04/25 06:53:30;;;;;;;5.15;2.92;;;7.80;94.50;;;;;;5032708;28;20037;-74
2023/04/25 06:55:56;;;;;;;8.35;3.00;;;7.90;94.50;;;;;;5032996;28;20043;-75
2023/04/25 06:58:25;;;;;;;6.10;2.50;;;7.90;94.20;;;;;;5019405;28;20034;-75
2023/04/25 07:00:51;;;;;;;5.10;2.58;;;7.90;95.00;;;;;;5031593;28;20026;-74
2023/04/25 07:03:17;;;;;;;5.15;2.75;;;7.90;95.00;;;;;;5037768;28;20033;-74
2023/04/25 07:05:42;;;;;;;7.18;2.60;;;7.80;94.50;;;;;;5038787;28;20080;-75
2023/04/25 07:08:08;;;;;;;10.15;3.03;;;7.80;95.60;;;;;;5038190;28;20025;-74
2023/04/25 07:10:33;;;;;;;6.60;2.60;;;7.70;96.20;;;;;;5035860;28;20325;-75
2023/04/25 07:12:59;;;;;;;6.30;3.13;;;7.80;96.60;;;;;;5038910;28;20750;-75
2023/04/25 07:15:25;;;;;;;9.13;3.70;;;7.80;97.00;;;;;;5037525;28;20040;-75
2023/04/25 07:17:51;;;;;;;8.00;3.40;;;7.60;97.60;;;;;;5038588;28;20365;-75
2023/04/25 07:20:17;;;;;;;7.93;4.80;;;7.60;97.90;;;;;;5034446;28;20174;-75
2023/04/25 07:22:42;;;;;;;15.07;6.10;;;7.50;96.50;;;;;;5037454;28;20029;-77
2023/04/25 07:25:08;;;;;;;7.80;5.05;;;7.20;95.40;;;;;;5038579;28;20398;-79
2023/04/25 07:27:34;;;;;;;8.75;4.68;;;6.90;93.30;;;;;;5038358;28;20097;-79
2023/04/25 07:29:59;;;;;;;12.82;5.75;;;6.70;94.70;;;;;;5038629;28;20049;-79
2023/04/25 07:32:28;;;;;;;9.38;5.05;;;6.50;92.60;;;;;;5032928;28;20025;-79
2023/04/25 07:34:54;;;;;;;8.43;4.72;;;6.20;92.20;;;;;;5038286;28;20037;-78
2023/04/25 07:37:20;;;;;;;10.68;5.32;;;6.10;93.40;;;;;;5038155;28;20075;-79
2023/04/25 07:39:46;;;;;;;18.40;9.80;;;6.00;91.30;;;;;;5038113;28;20049;-79
2023/04/25 07:42:12;;;;;;;19.58;10.90;;;5.90;87.90;;;;;;5038157;28;20022;-79
2023/04/25 07:44:42;;;;;;;18.52;11.20;;;5.80;85.80;;;;;;5053757;28;20045;-78
2023/04/25 07:47:07;;;;;;;20.10;12.55;;;5.80;85.20;;;;;;5033360;28;20109;-78
2023/04/25 07:49:40;;;;;;;16.25;10.02;;;5.80;84.30;;;;;;5018234;28;20053;-78
2023/04/25 07:52:06;;;;;;;11.02;6.00;;;5.80;83.90;;;;;;5018186;28;20411;-78
2023/04/25 07:54:32;;;;;;;13.20;6.82;;;5.90;85.20;;;;;;5018138;28;20092;-79
2023/04/25 07:56:58;;;;;;;8.30;5.35;;;5.90;83.50;;;;;;5017851;28;20429;-81
2023/04/25 07:59:24;;;;;;;9.93;5.57;;;6.10;81.80;;;;;;5033835;28;20037;-80
2023/04/25 08:01:49;;;;;;;14.07;6.88;;;6.20;83.10;;;;;;5029981;28;20492;-82
2023/04/25 08:04:15;;;;;;;8.65;5.25;;;6.20;84.70;;;;;;5017609;28;20537;-81
2023/04/25 08:06:40;;;;;;;8.70;4.68;;;6.30;83.40;;;;;;5023021;28;20025;-81
2023/04/25 08:09:08;;;;;;;9.07;5.20;;;6.50;83.50;;;;;;5032844;28;20021;-81
2023/04/25 08:11:34;;;;;;;9.02;5.35;;;6.50;86.30;;;;;;5027768;28;20021;-81
2023/04/25 08:13:59;;;;;;;11.70;8.45;;;6.50;88.90;;;;;;5018229;28;20057;-79
2023/04/25 08:16:25;;;;;;;11.25;6.72;;;6.40;89.40;;;;;;5024219;28;20022;-79
2023/04/25 08:18:50;;;;;;;9.23;6.35;;;6.20;88.50;;;;;;5023357;28;20025;-80
2023/04/25 08:21:16;;;;;;;9.50;5.53;;;6.10;85.60;;;;;;5037522;28;20029;-79
2023/04/25 08:23:41;;;;;;;12.13;6.00;;;6.10;87.40;;;;;;5032532;28;20434;-80
2023/04/25 08:26:07;;;;;;;10.35;6.88;;;6.00;85.90;;;;;;5031276;28;20104;-80
2023/04/25 08:28:33;;;;;;;12.98;6.65;;;6.00;83.50;;;;;;5037068;28;20314;-81
2023/04/25 08:30:59;;;;;;;15.98;10.13;;;6.00;83.70;;;;;;5035972;28;20421;-81
2023/04/25 08:33:25;;;;;;;18.10;11.27;;;5.90;82.60;;;;;;5034612;28;20036;-80
2023/04/25 08:35:50;;;;;;;14.27;6.93;;;5.80;82.00;;;;;;5034541;28;20120;-80
2023/04/25 08:38:17;;;;;;;8.40;5.30;;;5.90;81.70;;;;;;5037311;28;20052;-80
2023/04/25 08:40:44;;;;;;;12.25;7.07;;;5.90;82.80;;;;;;5052387;28;20025;-80
2023/04/25 08:43:13;;;;;;;12.88;8.63;;;5.80;84.50;;;;;;5033119;28;20026;-80
2023/04/25 08:45:42;;;;;;;13.18;6.30;;;5.60;81.80;;;;;;5016037;28;20324;-80
2023/04/25 08:48:11;;;;;;;11.50;5.28;;;5.60;81.20;;;;;;5017051;28;20026;-80
2023/04/25 08:50:51;;;;;;;12.63;7.72;;;5.40;85.90;;;;;;5035365;28;20013;-80
2023/04/25 08:53:21;;;;;;;10.82;5.78;;;5.30;82.30;;;;;;5050263;28;20071;-80
2023/04/25 08:55:49;;;;;;;6.97;4.63;;;5.30;80.00;;;;;;5036662;28;20437;-80
2023/04/25 08:58:16;;;;;;;11.75;5.57;;;5.00;84.50;;;;;;5031665;28;20026;-80
2023/04/25 09:00:41;;;;;;;7.32;4.05;;;4.90;80.50;;;;;;5035389;28;20438;-80
2023/04/25 09:03:08;;;;;;;7.45;3.80;;;4.70;85.90;;;;;;5034860;28;20059;-80
2023/04/25 09:05:34;;;;;;;6.00;3.55;;;4.50;84.40;;;;;;5036414;28;20037;-79
2023/04/25 09:08:00;;;;;;;6.28;3.53;;;4.30;84.00;;;;;;5033386;28;20471;-81
2023/04/25 09:10:26;;;;;;;7.18;3.60;;;4.10;83.50;;;;;;5036509;28;20034;-82
2023/04/25 09:13:23;;;;;;;7.28;4.20;;;4.00;82.70;;;;;;5025306;28;20317;-81
2023/04/25 09:15:51;;;;;;;6.47;4.30;;;3.90;81.20;;;;;;5035207;28;20022;-84
2023/04/25 09:18:28;;;;;;;9.88;5.70;;;3.90;79.70;;;;;;5021741;28;20084;-83
2023/04/25 09:21:04;;;;;;;8.82;5.32;;;3.90;79.50;;;;;;5016716;28;20356;-83
2023/04/25 09:23:30;;;;;;;7.13;4.45;;;3.90;77.30;;;;;;5033369;28;20033;-84
2023/04/25 09:25:56;;;;;;;6.82;3.67;;;4.00;76.90;;;;;;5051792;28;20089;-84
2023/04/25 09:28:27;;;;;;;6.82;3.92;;;3.90;80.50;;;;;;5034998;28;20056;-83
2023/04/25 09:30:59;;;;;;;5.05;2.60;;;3.80;78.30;;;;;;5032980;28;20021;-84
2023/04/25 09:33:30;;;;;;;3.55;1.52;;;3.60;80.50;;;;;;5034404;28;20033;-84
2023/04/25 09:36:03;;;;;;;4.25;1.90;;;3.50;83.60;;;;;;5036148;28;20087;-84
2023/04/25 09:38:40;;;;;;;3.17;1.60;;;3.30;81.60;;;;;;5050461;28;20026;-85
2023/04/25 09:41:07;;;;;;;5.55;2.75;;;3.20;80.90;;;;;;5036004;28;20036;-84
2023/04/25 09:43:32;;;;;;;5.72;2.90;;;3.20;77.80;;;;;;5050481;28;20135;-84
2023/04/25 09:46:00;;;;;;;4.07;1.77;;;3.20;80.80;;;;;;5034151;28;20488;-84
2023/04/25 09:48:26;;;;;;;6.07;3.50;;;3.30;77.00;;;;;;5034880;28;20056;-83
2023/04/25 09:51:10;;;;;;;2.92;1.80;;;3.40;79.70;;;;;;5035964;28;20369;-84
2023/04/25 09:53:40;;;;;;;2.97;1.70;;;3.30;78.80;;;;;;5050557;28;20449;-83
2023/04/25 09:56:08;;;;;;;3.97;2.03;;;3.30;79.30;;;;;;5035920;28;20025;-83
2023/04/25 09:58:35;;;;;;;3.20;1.85;;;3.20;78.20;;;;;;5033902;28;20021;-83
2023/04/25 10:01:10;;;;;;;3.28;1.90;;;3.10;77.50;;;;;;5049332;28;20036;-82
2023/04/25 10:03:39;;;;;;;6.00;3.80;;;2.90;80.60;;;;;;5018975;28;20415;-82
2023/04/25 10:06:14;;;;;;;5.32;1.85;;;2.70;79.10;;;;;;5014664;28;20042;-81
2023/04/25 10:08:40;;;;;;;4.22;3.08;;;2.70;81.30;;;;;;5027858;28;20080;-80
2023/04/25 10:11:08;;;;;;;5.05;3.30;;;2.60;78.30;;;;;;5025871;28;20415;-79
2023/04/25 10:13:34;;;;;;;2.25;1.35;;;2.60;78.60;;;;;;5033715;28;20040;-77
2023/04/25 10:16:02;;;;;;;4.65;3.92;;;2.30;80.00;;;;;;5033331;28;20018;-77
2023/04/25 10:18:29;;;;;;;4.05;2.65;;;2.10;78.60;;;;;;5035451;28;20029;-77
2023/04/25 10:20:57;;;;;;;3.90;2.08;;;2.10;75.00;;;;;;5039312;28;20026;-77
2023/04/25 10:23:23;;;;;;;3.42;2.15;;;2.30;73.40;;;;;;5014724;28;20423;-77
2023/04/25 10:25:51;;;;;;;3.67;2.10;;;2.20;75.10;;;;;;5015843;28;20101;-76
2023/04/25 10:28:17;;;;;;;5.60;3.28;;;2.00;77.20;;;;;;5025877;28;20037;-77
2023/04/25 10:31:07;;;;;;;4.18;2.42;;;2.00;75.40;;;;;;5033161;28;20445;-77
2023/04/25 10:33:37;;;;;;;3.92;2.20;;;2.00;72.90;;;;;;5034678;28;20033;-81
2023/04/25 10:36:23;;;;;;;2.83;1.63;;;2.20;73.00;;;;;;5037119;28;20029;-79
2023/04/25 10:38:50;;;;;;;2.55;1.50;;;2.10;73.40;;;;;;5054685;28;20064;-80
2023/04/25 10:41:22;;;;;;;4.55;2.40;;;2.30;71.10;;;;;;5035573;28;20021;-80
2023/04/25 10:43:49;;;;;;;4.78;2.42;;;2.40;73.80;;;;;;5019687;28;20410;-81
2023/04/25 10:46:25;;;;;;;2.35;1.55;;;2.40;74.90;;;;;;5034521;28;20414;-80
2023/04/25 10:48:53;;;;;;;3.42;1.90;;;2.30;77.20;;;;;;5051666;28;20033;-80
2023/04/25 10:51:28;;;;;;;4.32;2.40;;;2.30;77.50;;;;;;5053622;22;20433;-81
2023/04/25 10:54:08;;;;;;;4.47;2.45;;;2.40;74.10;;;;;;5054061;28;20433;-82
2023/04/25 10:56:39;;;;;;;2.63;1.58;;;2.50;74.90;;;;;;5037887;28;20180;-81
2023/04/25 10:59:12;;;;;;;2.40;1.40;;;2.50;74.80;;;;;;5037282;28;20380;-80
2023/04/25 11:01:45;;;;;;;3.47;2.20;;;2.50;79.50;;;;;;5037361;28;20021;-80
2023/04/25 11:04:31;;;;;;;4.90;2.10;;;2.50;77.60;;;;;;5037276;28;20326;-80
2023/04/25 11:07:38;;;;;;;3.20;1.67;;;2.80;74.70;;;;;;5038870;28;20021;-81
2023/04/25 11:10:04;;;;;;;1.65;1.10;;;2.90;78.30;;;;;;5015459;28;20025;-80
2023/04/25 11:12:31;;;;;;;2.10;1.40;;;3.00;82.80;;;;;;5034280;28;20384;-79
2023/04/25 11:15:05;;;;;;;2.40;1.40;;;3.30;79.40;;;;;;5037248;28;20029;-80
2023/04/25 11:17:31;;;;;;;;;;;3.70;83.40;;;;;;5037962;28;20029;-80
2023/04/25 11:19:57;;;;;;;3.10;1.60;;;3.90;88.10;;;;;;5037927;28;19966;-80
2023/04/25 11:22:23;;;;;;;3.50;1.90;;;3.90;87.80;;;;;;5038254;28;20041;-80
2023/04/25 11:24:48;;;;;;;3.50;1.83;;;3.80;88.40;;;;;;5037210;28;20033;-80
2023/04/25 11:27:14;;;;;;;1.63;1.00;;;3.70;88.40;;;;;;5037846;28;20025;-79
2023/04/25 11:29:40;;;;;;;1.40;1.10;;;3.70;88.90;;;;;;5037575;28;20117;-80
2023/04/25 11:32:06;;;;;;;2.25;1.30;;;3.60;87.50;;;;;;5035615;28;20029;-80
2023/04/25 11:34:33;;;;;;;3.38;1.90;;;3.60;88.10;;;;;;5037055;28;20460;-80
2023/04/25 11:37:01;;;;;;;2.20;1.50;;;3.40;89.30;;;;;;5037204;28;20128;-79
2023/04/25 11:39:28;;;;;;;2.47;1.55;;;3.40;86.20;;;;;;5036703;28;20079;-79
2023/04/25 11:41:54;;;;;;;2.78;1.50;;;3.50;85.80;;;;;;5053485;28;20032;-79
2023/04/25 11:44:21;;;;;;;3.17;1.60;;;3.60;84.20;;;;;;5038130;28;20022;-79
2023/04/25 11:46:47;;;;;;;2.83;1.45;;;3.70;84.70;;;;;;5050070;28;20029;-79
2023/04/25 11:49:13;;;;;;;2.50;1.50;;;3.70;86.70;;;;;;5037272;28;20029;-79
2023/04/25 11:51:40;;;;;;;2.88;1.70;;;3.80;85.80;;;;;;5037252;28;20333;-80
2023/04/25 11:54:06;;;;;;;1.85;1.20;;;3.90;86.80;;;;;;5036122;28;20318;-80
2023/04/25 11:56:32;;;;;;;2.03;1.30;;;4.00;88.10;;;;;;5038766;28;20040;-81
2023/04/25 11:59:02;;;;;;;2.53;1.30;;;4.10;86.90;;;;;;5037319;28;20022;-81
2023/04/25 12:01:34;;;;;;;27.73;16.00;;;4.20;88.00;;;;;;5026097;28;20022;-80
2023/04/25 12:04:11;;;;;;;3.45;1.92;;;4.50;90.40;;;;;;5036297;28;20083;-80
2023/04/25 12:06:40;;;;;;;3.70;2.45;;;4.80;89.00;;;;;;5036907;28;20128;-80
2023/04/25 12:09:11;;;;;;;2.20;1.30;;;5.00;89.80;;;;;;5035910;28;20021;-80
2023/04/25 12:11:53;;;;;;;2.60;1.42;;;4.90;94.80;;;;;;5053301;28;20022;-79
2023/04/25 12:14:31;;;;;;;4.60;2.40;;;4.90;92.20;;;;;;5037599;28;20029;-79
2023/04/25 12:16:59;;;;;;;15.68;7.13;;;4.80;89.50;;;;;;5036312;28;20423;-79
2023/04/25 12:19:25;;;;;;;5.68;2.67;;;4.80;87.70;;;;;;5036414;28;20028;-79
2023/04/25 12:21:52;;;;;;;3.20;1.60;;;5.10;87.00;;;;;;5034088;28;20063;-79
2023/04/25 12:24:24;;;;;;;4.60;2.40;;;5.10;89.30;;;;;;5037495;28;20053;-79
2023/04/25 12:27:01;;;;;;;4.88;2.53;;;5.30;88.10;;;;;;5037539;28;20101;-79
2023/04/25 12:29:29;;;;;;;3.38;1.88;;;5.80;89.00;;;;;;5036345;28;20025;-79
2023/04/25 12:31:55;;;;;;;3.40;1.67;;;6.20;92.90;;;;;;5036102;28;20018;-78
2023/04/25 12:34:22;;;;;;;2.50;1.50;;;6.40;93.80;;;;;;5037382;28;20054;-78
2023/04/25 12:36:49;;;;;;;5.18;3.80;;;6.50;97.20;;;;;;5037074;28;20060;-78
2023/04/25 12:39:19;;;;;;;4.25;2.60;;;6.30;94.10;;;;;;5037241;28;20022;-78
2023/04/25 12:41:48;;;;;;;4.50;2.72;;;6.10;95.10;;;;;;5052617;28;20029;-78
2023/04/25 12:44:14;;;;;;;4.18;2.40;;;5.90;93.60;;;;;;5051648;28;20405;-78
2023/04/25 12:46:40;;;;;;;3.80;2.17;;;6.10;90.40;;;;;;5034913;28;20083;-78
2023/04/25 12:49:08;;;;;;;4.18;2.30;;;6.40;92.50;;;;;;5035896;28;20453;-78
2023/04/25 12:51:34;;;;;;;3.53;1.80;;;6.70;93.80;;;;;;5036629;28;20319;-78
2023/04/25 12:54:00;;;;;;;3.70;1.98;;;6.90;94.10;;;;;;5037002;28;20033;-78
2023/04/25 12:56:29;;;;;;;3.17;1.60;;;7.00;95.70;;;;;;5036638;28;20037;-78